createdAt,value
2018-04-24T00:00:43.109Z,4.83
2018-04-24T00:03:10.513Z,5.13
2018-04-24T00:05:37.936Z,5.20
2018-04-24T00:08:05.397Z,5.53
2018-04-24T00:10:33.336Z,5.30
2018-04-24T00:13:02.205Z,5.50
2018-04-24T00:15:31.312Z,5.70
2018-04-24T00:17:59.499Z,5.47
2018-04-24T00:20:27.000Z,5.83
2018-04-24T00:22:54.413Z,5.70
2018-04-24T00:25:21.832Z,6.63
2018-04-24T00:27:49.252Z,5.37
2018-04-24T00:30:16.656Z,6.10
2018-04-24T00:32:44.140Z,5.73
2018-04-24T00:35:12.433Z,5.80
2018-04-24T00:37:39.849Z,5.30
2018-04-24T00:40:07.378Z,6.27
2018-04-24T00:42:34.816Z,5.63
2018-04-24T00:45:03.025Z,5.83
2018-04-24T00:47:30.448Z,5.63
2018-04-24T00:49:57.877Z,5.50
2018-04-24T00:52:25.345Z,5.47
2018-04-24T00:54:52.748Z,5.80
2018-04-24T00:57:21.209Z,5.50
2018-04-24T00:59:48.634Z,5.20
2018-04-24T01:02:16.824Z,5.73
2018-04-24T01:04:45.032Z,5.60
2018-04-24T01:07:12.440Z,5.67
2018-04-24T01:09:39.860Z,5.83
2018-04-24T01:12:07.329Z,5.70
2018-04-24T01:14:35.556Z,5.83
2018-04-24T01:17:08.432Z,6.17
2018-04-24T01:19:36.356Z,6.90
2018-04-24T01:22:05.446Z,5.83
2018-04-24T01:24:32.959Z,6.80
2018-04-24T01:27:00.376Z,6.67
2018-04-24T01:29:27.791Z,6.87
2018-04-24T01:31:55.232Z,6.87
2018-04-24T01:34:22.661Z,6.77
2018-04-24T01:36:50.080Z,6.83
2018-04-24T01:39:17.499Z,6.83
2018-04-24T01:41:44.954Z,7.53
2018-04-24T01:44:13.132Z,7.17
2018-04-24T01:46:41.325Z,7.87
2018-04-24T01:49:09.504Z,8.47
2018-04-24T01:51:37.689Z,7.90
2018-04-24T01:54:05.126Z,7.93
2018-04-24T01:56:34.067Z,8.10
2018-04-24T01:59:02.246Z,8.90
2018-04-24T02:01:30.434Z,8.20
2018-04-24T02:03:58.615Z,9.43
2018-04-24T02:06:26.821Z,10.00
2018-04-24T02:08:54.246Z,9.37
2018-04-24T02:11:21.661Z,9.07
2018-04-24T02:13:49.081Z,8.53
2018-04-24T02:16:16.496Z,9.40
2018-04-24T02:18:43.978Z,9.50
2018-04-24T02:21:12.252Z,10.33
2018-04-24T02:23:39.684Z,9.60
2018-04-24T02:26:07.170Z,9.57
2018-04-24T02:28:35.346Z,9.93
2018-04-24T02:31:02.790Z,10.00
2018-04-24T02:33:30.229Z,9.90
2018-04-24T02:35:57.705Z,10.27
2018-04-24T02:38:25.172Z,9.97
2018-04-24T02:40:52.600Z,10.80
2018-04-24T02:43:20.811Z,10.50
2018-04-24T02:45:48.278Z,10.50
2018-04-24T02:48:15.765Z,10.70
2018-04-24T02:50:43.188Z,10.30
2018-04-24T02:53:10.634Z,10.60
2018-04-24T02:55:38.063Z,11.23
2018-04-24T02:58:05.514Z,11.12
2018-04-24T03:00:34.641Z,11.73
2018-04-24T03:03:02.102Z,10.80
2018-04-24T03:05:29.532Z,11.90
2018-04-24T03:07:56.948Z,11.57
2018-04-24T03:10:24.383Z,11.10
2018-04-24T03:12:52.592Z,11.53
2018-04-24T03:15:19.999Z,11.40
2018-04-24T03:17:47.501Z,12.07
2018-04-24T03:20:15.707Z,11.43
2018-04-24T03:22:43.128Z,11.67
2018-04-24T03:25:10.558Z,10.77
2018-04-24T03:27:37.986Z,11.87
2018-04-24T03:30:05.559Z,12.00
2018-04-24T03:32:33.773Z,11.60
2018-04-24T03:35:01.205Z,11.23
2018-04-24T03:37:28.637Z,12.20
2018-04-24T03:39:56.080Z,11.20
2018-04-24T03:42:23.504Z,11.60
2018-04-24T03:44:50.923Z,11.52
2018-04-24T03:47:18.368Z,12.30
2018-04-24T03:49:46.561Z,12.47
2018-04-24T03:52:14.741Z,11.50
2018-04-24T03:54:42.967Z,11.80
2018-04-24T03:57:10.455Z,11.50
2018-04-24T03:59:38.568Z,12.10
2018-04-24T04:02:06.005Z,12.30
2018-04-24T04:04:33.437Z,11.87
2018-04-24T04:07:00.876Z,11.20
2018-04-24T04:09:29.064Z,11.83
2018-04-24T04:11:57.283Z,12.67
2018-04-24T04:14:24.699Z,11.77
2018-04-24T04:16:52.140Z,12.80
2018-04-24T04:19:31.646Z,12.20
2018-04-24T04:22:11.661Z,13.00
2018-04-24T04:24:49.209Z,13.23
2018-04-24T04:27:17.415Z,13.23
2018-04-24T04:29:44.882Z,13.03
2018-04-24T04:32:12.451Z,12.50
2018-04-24T04:34:39.783Z,13.20
2018-04-24T04:37:07.213Z,12.83
2018-04-24T04:39:34.635Z,14.63
2018-04-24T04:42:02.856Z,15.03
2018-04-24T04:44:30.276Z,13.80
2018-04-24T04:46:57.700Z,14.40
2018-04-24T04:49:25.142Z,13.73
2018-04-24T04:51:53.333Z,13.60
2018-04-24T04:54:21.520Z,13.43
2018-04-24T04:56:48.932Z,13.33
2018-04-24T04:59:16.366Z,14.43
2018-04-24T05:01:43.823Z,13.67
2018-04-24T05:04:12.014Z,13.97
2018-04-24T05:06:39.453Z,13.40
2018-04-24T05:09:07.871Z,14.80
2018-04-24T05:11:35.292Z,13.70
2018-04-24T05:14:02.729Z,14.20
2018-04-24T05:16:30.213Z,14.07
2018-04-24T05:18:57.659Z,13.20
2018-04-24T05:21:25.088Z,15.33
2018-04-24T05:23:52.527Z,13.60
2018-04-24T05:26:19.932Z,14.30
2018-04-24T05:28:47.351Z,15.13
2018-04-24T05:31:14.828Z,14.60
2018-04-24T05:33:42.266Z,14.85
2018-04-24T05:36:09.676Z,15.40
2018-04-24T05:38:37.689Z,14.43
2018-04-24T05:41:05.899Z,16.53
2018-04-24T05:43:36.357Z,15.73
2018-04-24T05:46:03.803Z,16.57
2018-04-24T05:48:31.234Z,17.70
2018-04-24T05:50:58.682Z,16.67
2018-04-24T05:53:26.109Z,16.63
2018-04-24T05:55:53.555Z,16.80
2018-04-24T05:58:21.752Z,16.43
2018-04-24T06:00:49.968Z,15.05
2018-04-24T06:03:17.380Z,14.00
2018-04-24T06:05:44.814Z,13.93
2018-04-24T06:08:12.649Z,12.90
2018-04-24T06:10:40.087Z,12.27
2018-04-24T06:13:09.089Z,11.27
2018-04-24T06:15:36.501Z,12.03
2018-04-24T06:18:04.117Z,11.47
2018-04-24T06:20:31.589Z,10.97
2018-04-24T06:22:59.032Z,11.70
2018-04-24T06:25:26.456Z,10.87
2018-04-24T06:27:54.670Z,11.10
2018-04-24T06:30:22.117Z,10.40
2018-04-24T06:32:50.308Z,11.40
2018-04-24T06:35:17.740Z,10.93
2018-04-24T06:37:45.172Z,11.20
2018-04-24T06:40:12.606Z,11.30
2018-04-24T06:42:40.835Z,11.37
2018-04-24T06:45:09.711Z,11.80
2018-04-24T06:47:37.214Z,10.93
2018-04-24T06:50:04.634Z,10.67
2018-04-24T06:52:32.912Z,12.00
2018-04-24T06:55:01.205Z,11.43
2018-04-24T06:57:29.306Z,11.93
2018-04-24T06:59:57.535Z,10.90
2018-04-24T07:02:25.084Z,11.53
2018-04-24T07:04:52.492Z,11.07
2018-04-24T07:07:19.916Z,11.70
2018-04-24T07:09:47.332Z,12.13
2018-04-24T07:12:14.760Z,11.17
2018-04-24T07:14:42.210Z,11.97
2018-04-24T07:17:09.635Z,10.80
2018-04-24T07:19:37.157Z,11.30
2018-04-24T07:22:04.587Z,11.97
2018-04-24T07:24:32.009Z,11.60
2018-04-24T07:26:59.499Z,11.70
2018-04-24T07:29:26.919Z,11.00
2018-04-24T07:31:54.384Z,12.30
2018-04-24T07:34:21.880Z,10.73
2018-04-24T07:36:50.196Z,10.47
2018-04-24T07:39:17.790Z,10.80
2018-04-24T07:41:45.213Z,11.00
2018-04-24T07:44:12.669Z,11.03
2018-04-24T07:46:41.046Z,10.75
2018-04-24T07:49:08.659Z,10.27
2018-04-24T07:51:36.121Z,10.60
2018-04-24T07:54:03.595Z,9.60
2018-04-24T07:56:31.010Z,9.47
2018-04-24T07:58:59.222Z,9.90
2018-04-24T08:01:26.646Z,10.23
2018-04-24T08:03:54.068Z,10.27
2018-04-24T08:06:21.492Z,9.60
2018-04-24T08:08:49.675Z,10.13
2018-04-24T08:11:17.184Z,9.80
2018-04-24T08:13:44.613Z,9.60
2018-04-24T08:16:12.792Z,9.90
2018-04-24T08:18:40.790Z,9.30
2018-04-24T08:21:08.208Z,9.60
2018-04-24T08:23:35.703Z,9.87
2018-04-24T08:26:03.172Z,9.87
2018-04-24T08:28:30.597Z,9.87
2018-04-24T08:30:58.019Z,9.20
2018-04-24T08:33:25.438Z,9.60
2018-04-24T08:35:52.906Z,8.93
2018-04-24T08:38:20.341Z,10.60
2018-04-24T08:40:48.671Z,11.40
2018-04-24T08:43:16.120Z,11.03
2018-04-24T08:45:43.544Z,11.70
2018-04-24T08:48:12.282Z,12.13
2018-04-24T08:50:39.710Z,13.27
2018-04-24T08:53:07.219Z,11.80
2018-04-24T08:55:35.393Z,13.20
2018-04-24T08:58:03.661Z,12.70
2018-04-24T09:00:31.131Z,12.60
2018-04-24T09:02:58.533Z,13.77
2018-04-24T09:05:25.970Z,13.62
2018-04-24T09:07:53.479Z,13.57
2018-04-24T09:10:20.904Z,13.73
2018-04-24T09:12:48.440Z,13.53
2018-04-24T09:15:15.890Z,13.60
2018-04-24T09:17:43.301Z,14.80
2018-04-24T09:20:10.844Z,16.13
2018-04-24T09:22:38.264Z,15.33
2018-04-24T09:25:06.488Z,14.73
2018-04-24T09:27:33.975Z,15.13
2018-04-24T09:30:02.251Z,15.20
2018-04-24T09:32:29.665Z,14.90
2018-04-24T09:34:57.168Z,14.17
2018-04-24T09:37:24.612Z,15.00
2018-04-24T09:39:52.784Z,16.07
2018-04-24T09:42:21.760Z,15.93
2018-04-24T09:44:49.188Z,15.80
2018-04-24T09:47:17.389Z,14.87
2018-04-24T09:49:44.848Z,16.23
2018-04-24T09:52:13.553Z,14.75
2018-04-24T09:54:40.976Z,15.73
2018-04-24T09:57:08.455Z,15.77
2018-04-24T09:59:35.988Z,15.43
2018-04-24T10:02:03.603Z,14.80
2018-04-24T10:04:31.029Z,13.90
2018-04-24T10:06:58.461Z,14.57
2018-04-24T10:09:25.883Z,13.47
2018-04-24T10:11:53.309Z,13.83
2018-04-24T10:14:20.774Z,14.37
2018-04-24T10:16:48.209Z,14.00
2018-04-24T10:19:15.636Z,13.87
2018-04-24T10:21:44.211Z,13.43
2018-04-24T10:24:11.657Z,13.47
2018-04-24T10:26:39.074Z,14.37
2018-04-24T10:29:06.524Z,15.87
2018-04-24T10:31:34.097Z,14.23
2018-04-24T10:34:01.513Z,13.67
2018-04-24T10:36:29.884Z,14.80
2018-04-24T10:38:57.316Z,14.20
2018-04-24T10:41:24.789Z,14.60
2018-04-24T10:43:53.090Z,14.70
2018-04-24T10:46:20.554Z,14.97
2018-04-24T10:48:48.041Z,14.73
2018-04-24T10:51:15.496Z,15.10
2018-04-24T10:53:42.900Z,15.37
2018-04-24T10:56:10.336Z,15.63
2018-04-24T10:58:37.762Z,15.60
2018-04-24T11:01:06.022Z,15.38
2018-04-24T11:03:33.505Z,16.70
2018-04-24T11:06:00.909Z,17.07
2018-04-24T11:08:28.330Z,15.87
2018-04-24T11:10:55.749Z,16.70
2018-04-24T11:13:23.166Z,16.67
2018-04-24T11:15:50.696Z,18.00
2018-04-24T11:18:18.121Z,16.10
2018-04-24T11:20:45.541Z,17.30
2018-04-24T11:23:12.980Z,18.10
2018-04-24T11:25:40.428Z,17.63
2018-04-24T11:28:08.626Z,17.40
2018-04-24T11:30:36.829Z,16.60
2018-04-24T11:33:04.240Z,18.23
2018-04-24T11:38:13.792Z,17.00
2018-04-24T11:40:41.213Z,17.47
2018-04-24T11:43:08.648Z,17.17
2018-04-24T11:45:36.057Z,16.33
2018-04-24T11:48:03.490Z,17.40
2018-04-24T11:50:30.924Z,17.03
2018-04-24T11:52:58.432Z,17.17
2018-04-24T11:55:25.865Z,17.70
2018-04-24T11:57:53.292Z,17.73
2018-04-24T12:00:20.804Z,17.60
2018-04-24T12:02:48.340Z,16.67
2018-04-24T12:05:15.692Z,16.50
2018-04-24T12:07:43.123Z,16.07
2018-04-24T12:10:10.552Z,16.40
2018-04-24T12:12:38.045Z,17.83
2018-04-24T12:15:05.516Z,17.07
2018-04-24T12:17:33.197Z,15.53
2018-04-24T12:20:00.628Z,17.23
2018-04-24T12:22:28.065Z,17.57
2018-04-24T12:24:55.472Z,17.93
2018-04-24T12:27:23.664Z,17.53
2018-04-24T12:29:51.881Z,19.03
2018-04-24T12:32:19.312Z,19.00
2018-04-24T12:34:47.507Z,21.10
2018-04-24T12:37:14.988Z,21.00
2018-04-24T12:39:43.141Z,21.20
2018-04-24T12:42:10.570Z,20.53
2018-04-24T12:44:38.009Z,20.80
2018-04-24T12:47:05.488Z,21.03
2018-04-24T12:49:32.942Z,21.47
2018-04-24T12:52:00.415Z,20.73
2018-04-24T12:54:27.836Z,20.60
2018-04-24T12:56:55.356Z,22.17
2018-04-24T12:59:23.525Z,22.33
2018-04-24T13:01:51.708Z,22.03
2018-04-24T13:04:19.133Z,20.83
2018-04-24T13:06:47.507Z,22.65
2018-04-24T13:09:14.912Z,21.48
2018-04-24T13:11:42.345Z,21.80
2018-04-24T13:14:09.811Z,21.97
2018-04-24T13:16:37.340Z,21.40
2018-04-24T13:19:05.561Z,20.80
2018-04-24T13:21:33.022Z,20.73
2018-04-24T13:24:00.432Z,20.00
2018-04-24T13:26:28.628Z,20.13
2018-04-24T13:28:56.072Z,19.20
2018-04-24T13:31:23.523Z,20.33
2018-04-24T13:33:50.948Z,20.20
2018-04-24T13:36:19.178Z,19.90
2018-04-24T13:38:47.345Z,19.50
2018-04-24T13:41:14.794Z,20.33
2018-04-24T13:43:42.199Z,20.83
2018-04-24T13:46:09.661Z,21.70
2018-04-24T13:48:37.081Z,22.00
2018-04-24T13:51:04.527Z,21.67
2018-04-24T13:53:31.973Z,23.20
2018-04-24T13:55:59.416Z,23.57
2018-04-24T13:58:27.608Z,22.17
2018-04-24T14:00:55.130Z,23.17
2018-04-24T14:03:22.470Z,24.23
2018-04-24T14:05:49.904Z,24.13
2018-04-24T14:08:18.724Z,24.92
2018-04-24T14:10:46.125Z,25.33
2018-04-24T14:13:13.540Z,26.43
2018-04-24T14:15:41.745Z,26.20
2018-04-24T14:18:09.163Z,26.83
2018-04-24T14:20:36.694Z,25.97
2018-04-24T14:23:04.194Z,26.60
2018-04-24T14:25:31.615Z,25.70
2018-04-24T14:27:59.789Z,27.53
2018-04-24T14:30:27.982Z,27.33
2018-04-24T14:32:55.400Z,29.50
2018-04-24T14:35:22.865Z,30.30
2018-04-24T14:37:50.293Z,30.07
2018-04-24T14:40:18.664Z,29.67
2018-04-24T14:42:46.924Z,30.40
2018-04-24T14:45:15.037Z,31.40
2018-04-24T14:47:43.257Z,32.60
2018-04-24T14:50:11.477Z,32.27
2018-04-24T14:52:38.920Z,31.30
2018-04-24T14:55:06.353Z,30.03
2018-04-24T14:57:34.604Z,30.43
2018-04-24T15:00:02.026Z,31.37
2018-04-24T15:02:29.457Z,31.17
2018-04-24T15:04:57.642Z,31.53
2018-04-24T15:07:25.171Z,31.43
2018-04-24T15:09:52.615Z,33.10
2018-04-24T15:12:20.044Z,32.40
2018-04-24T15:14:47.468Z,32.55
2018-04-24T15:17:14.914Z,28.07
2018-04-24T15:19:42.398Z,28.53
2018-04-24T15:22:09.828Z,28.37
2018-04-24T15:24:37.261Z,26.10
2018-04-24T15:27:04.744Z,26.90
2018-04-24T15:29:32.161Z,24.97
2018-04-24T15:31:59.600Z,27.27
2018-04-24T15:34:27.021Z,27.10
2018-04-24T15:36:54.480Z,27.93
2018-04-24T15:39:21.904Z,28.33
2018-04-24T15:41:50.637Z,27.87
2018-04-24T15:44:19.752Z,28.50
2018-04-24T15:46:47.179Z,28.03
2018-04-24T15:49:14.624Z,28.40
2018-04-24T15:51:42.059Z,27.87
2018-04-24T15:54:09.480Z,28.33
2018-04-24T15:56:36.920Z,27.93
2018-04-24T15:59:04.376Z,28.63
2018-04-24T16:01:31.801Z,28.50
2018-04-24T16:03:59.996Z,28.90
2018-04-24T16:06:28.171Z,27.77
2018-04-24T16:08:56.365Z,27.60
2018-04-24T16:11:24.680Z,27.70
2018-04-24T16:13:52.273Z,25.20
2018-04-24T16:16:20.640Z,25.83
2018-04-24T16:18:48.101Z,25.03
2018-04-24T16:21:15.533Z,25.07
2018-04-24T16:23:43.054Z,24.77
2018-04-24T16:26:10.470Z,23.70
2018-04-24T16:28:37.899Z,23.80
2018-04-24T16:31:05.312Z,23.43
2018-04-24T16:33:32.830Z,23.20
2018-04-24T16:36:00.234Z,23.00
2018-04-24T16:38:27.673Z,24.87
2018-04-24T16:40:55.077Z,22.10
2018-04-24T16:43:22.501Z,24.30
2018-04-24T16:45:49.964Z,24.17
2018-04-24T16:48:17.417Z,25.60
2018-04-24T16:50:44.849Z,24.30
2018-04-24T16:53:12.284Z,24.60
2018-04-24T16:55:39.704Z,24.50
2018-04-24T16:58:07.897Z,24.80
2018-04-24T17:00:36.154Z,24.87
2018-04-24T17:03:03.529Z,25.03
2018-04-24T17:05:31.723Z,24.10
2018-04-24T17:07:59.153Z,24.10
2018-04-24T17:10:26.595Z,25.13
2018-04-24T17:12:54.174Z,23.53
2018-04-24T17:15:22.636Z,23.80
2018-04-24T17:17:51.744Z,23.80
2018-04-24T17:20:19.966Z,23.63
2018-04-24T17:22:47.380Z,24.43
2018-04-24T17:25:14.888Z,20.20
2018-04-24T17:27:42.363Z,20.90
2018-04-24T17:30:10.557Z,21.13
2018-04-24T17:32:38.055Z,19.73
2018-04-24T17:35:05.720Z,20.60
2018-04-24T17:37:33.140Z,21.33
2018-04-24T17:40:01.331Z,23.20
2018-04-24T17:42:29.536Z,23.03
2018-04-24T17:44:57.034Z,22.00
2018-04-24T17:47:24.456Z,23.70
2018-04-24T17:49:53.274Z,22.35
2018-04-24T17:52:22.363Z,23.30
2018-04-24T17:54:49.971Z,22.90
2018-04-24T17:57:18.158Z,23.50
2018-04-24T17:59:45.600Z,22.90
2018-04-24T18:02:13.790Z,23.93
2018-04-24T18:04:41.978Z,24.87
2018-04-24T18:07:10.152Z,22.27
2018-04-24T18:09:38.385Z,22.03
2018-04-24T18:12:05.785Z,22.27
2018-04-24T18:14:33.232Z,20.87
2018-04-24T18:17:00.676Z,22.60
2018-04-24T18:19:28.183Z,21.20
2018-04-24T18:21:55.605Z,21.20
2018-04-24T18:24:23.904Z,22.20
2018-04-24T18:26:51.326Z,22.67
2018-04-24T18:29:18.839Z,21.47
2018-04-24T18:31:47.025Z,20.03
2018-04-24T18:34:14.493Z,20.43
2018-04-24T18:36:41.883Z,19.87
2018-04-24T18:39:09.328Z,20.40
2018-04-24T18:41:37.491Z,21.10
2018-04-24T18:44:05.818Z,21.10
2018-04-24T18:46:33.257Z,19.47
2018-04-24T18:49:01.465Z,22.03
2018-04-24T18:51:28.934Z,20.23
2018-04-24T18:53:56.353Z,22.40
2018-04-24T18:56:23.777Z,23.33
2018-04-24T18:58:51.220Z,21.27
2018-04-24T19:01:18.705Z,23.67
2018-04-24T19:03:46.876Z,23.77
2018-04-24T19:06:15.074Z,23.57
2018-04-24T19:08:42.495Z,25.20
2018-04-24T19:11:09.915Z,26.53
2018-04-24T19:13:37.456Z,24.80
2018-04-24T19:16:05.677Z,25.80
2018-04-24T19:18:38.842Z,25.43
2018-04-24T19:21:07.024Z,25.83
2018-04-24T19:23:34.464Z,27.83
2018-04-24T19:26:01.892Z,28.80
2018-04-24T19:28:29.341Z,28.53
2018-04-24T19:30:57.528Z,29.57
2018-04-24T19:33:25.734Z,28.83
2018-04-24T19:35:55.099Z,30.03
2018-04-24T19:38:22.538Z,31.67
2018-04-24T19:40:55.685Z,29.87
2018-04-24T19:43:23.103Z,30.37
2018-04-24T19:45:50.537Z,32.70
2018-04-24T19:48:24.386Z,30.67
2018-04-24T19:50:51.812Z,32.70
2018-04-24T19:53:19.999Z,33.60
2018-04-24T19:55:47.428Z,33.20
2018-04-24T19:58:14.839Z,32.23
2018-04-24T20:00:43.041Z,33.80
2018-04-24T20:03:10.460Z,34.37
2018-04-24T20:05:37.893Z,33.37
2018-04-24T20:08:05.329Z,35.17
2018-04-24T20:10:33.623Z,33.60
2018-04-24T20:13:00.976Z,34.50
2018-04-24T20:15:28.400Z,33.77
2018-04-24T20:17:55.829Z,34.47
2018-04-24T20:20:24.952Z,35.27
2018-04-24T20:22:52.380Z,34.17
2018-04-24T20:25:20.620Z,33.90
2018-04-24T20:27:48.044Z,34.50
2018-04-24T20:30:15.456Z,34.17
2018-04-24T20:32:42.884Z,34.40
2018-04-24T20:35:10.316Z,33.33
2018-04-24T20:37:37.762Z,33.50
2018-04-24T20:40:05.188Z,35.23
2018-04-24T20:42:33.412Z,35.50
2018-04-24T20:45:00.898Z,34.90
2018-04-24T20:47:28.433Z,34.27
2018-04-24T20:49:55.762Z,34.30
2018-04-24T20:52:23.184Z,35.00
2018-04-24T20:54:50.618Z,34.73
2018-04-24T20:57:18.034Z,37.53
2018-04-24T20:59:46.236Z,37.07
2018-04-24T21:02:13.668Z,37.83
2018-04-24T21:04:41.102Z,37.17
2018-04-24T21:07:08.544Z,38.17
2018-04-24T21:09:36.005Z,38.90
2018-04-24T21:12:03.506Z,39.27
2018-04-24T21:14:30.944Z,38.13
2018-04-24T21:16:58.384Z,37.07
2018-04-24T21:19:25.889Z,40.20
2018-04-24T21:21:53.324Z,39.93
2018-04-24T21:24:20.789Z,39.83
2018-04-24T21:26:48.368Z,39.50
2018-04-24T21:29:16.527Z,39.27
2018-04-24T21:31:44.725Z,41.37
2018-04-24T21:34:12.149Z,40.10
2018-04-24T21:36:39.587Z,41.47
2018-04-24T21:39:06.992Z,41.97
2018-04-24T21:41:34.427Z,40.50
2018-04-24T21:44:01.859Z,40.37
2018-04-24T21:46:30.166Z,41.20
2018-04-24T21:48:58.764Z,39.70
2018-04-24T21:51:26.186Z,39.70
2018-04-24T21:53:53.606Z,40.30
2018-04-24T21:56:21.016Z,39.70
2018-04-24T21:58:49.228Z,41.53
2018-04-24T22:01:19.080Z,40.50
2018-04-24T22:03:46.498Z,41.93
2018-04-24T22:06:13.908Z,42.40
2018-04-24T22:08:41.329Z,42.13
2018-04-24T22:11:08.852Z,41.63
2018-04-24T22:13:36.305Z,42.40
2018-04-24T22:16:03.747Z,41.67
2018-04-24T22:18:31.172Z,41.97
2018-04-24T22:20:58.673Z,41.63
2018-04-24T22:23:26.130Z,41.43
2018-04-24T22:25:54.232Z,42.10
2018-04-24T22:28:21.767Z,43.33
2018-04-24T22:30:49.171Z,42.23
2018-04-24T22:33:17.412Z,41.47
2018-04-24T22:35:44.832Z,43.40
2018-04-24T22:38:13.015Z,43.83
2018-04-24T22:40:40.432Z,42.63
2018-04-24T22:43:07.856Z,42.80
2018-04-24T22:45:35.276Z,44.90
2018-04-24T22:48:04.116Z,43.87
2018-04-24T22:50:31.527Z,44.60
2018-04-24T22:52:59.132Z,45.60
2018-04-24T22:55:27.479Z,46.20
2018-04-24T22:57:55.653Z,44.00
2018-04-24T23:00:23.844Z,45.77
2018-04-24T23:02:52.029Z,46.30
2018-04-24T23:05:20.569Z,45.53
2018-04-24T23:07:47.991Z,45.17
2018-04-24T23:10:28.143Z,45.60
2018-04-24T23:13:07.256Z,44.60
2018-04-24T23:15:46.647Z,44.50
2018-04-24T23:18:26.684Z,44.20
2018-04-24T23:20:53.645Z,44.63
2018-04-24T23:23:21.065Z,44.00
2018-04-24T23:25:48.476Z,57.27
2018-04-24T23:28:16.001Z,45.73
2018-04-24T23:30:43.416Z,43.93
2018-04-24T23:33:10.905Z,44.00
2018-04-24T23:35:38.331Z,42.80
2018-04-24T23:38:05.755Z,42.13
2018-04-24T23:40:33.935Z,44.53
2018-04-24T23:43:01.349Z,44.90
2018-04-24T23:45:28.792Z,43.60
2018-04-24T23:47:56.203Z,44.67
2018-04-24T23:50:23.665Z,45.90
2018-04-24T23:52:51.041Z,41.57
2018-04-24T23:55:18.456Z,38.50
2018-04-24T23:57:46.632Z,36.30
